Pagina principale
METAR-TAF:

METAR-TAF

Aeroporti :

Aeroporto d'Engadina

Sankt Moritz, Svizzera

latitudine: 46-32-03N, longitudine: 9-53-03E, altezza: 1707 m

Osservazione

Il bollettino è stato emesso 38 minuti fa, alle 09:20 UTC
Vento 1 kt da nord/nord-ovest
Temperature -4°C
Umidità 68%
Pressione 1012 hPa
Visibilità 10 km o più
Nubi sparse ad un'altezza di 5000 ft
Nuvoloso ad un'altezza di 6400 ft

METAR: LSZS 090920Z 34001KT 9999 SCT050 BKN064 M04/M09 Q1012 RMK F TL180

Ora: 10:58 (09:58 UTC)

Previsione

Il bollettino è stato emesso 1 ora e 33 minuti fa, alle 08:25 UTC
Previsione valida dal 09 alle 09 UTC al 09 alle 18 UTC
Vento 2 kt da direzioni variabili
Visibilità 10 km o più
Poco nuvoloso ad un'altezza di 2500 ft
Nubi sparse ad un'altezza di 5000 ft
Probabilità 30% :
Temporaneamente
dal 09 alle 09 UTC al 09 alle 18 UTC
Visibilità: 4000 m
rovesci di neve

TAF: LSZS 090825Z 0909/0918 VRB02KT 9999 FEW025 SCT050 TX01/0914Z PROB30 TEMPO 0909/0918 4000 -SHSN

Osservazioni e previsioni meteorologiche di più di 4000 aeroporti (messaggi METAR e TAF).

Le stazioni disponibili sono rappresentate dai dischi gialli e rossi sulla carta.

Puntare il mouse per vedere il nome della stazione.

Clicca sopra per visualizzare le osservazioni e previsioni meteorologiche.

Per cambiare la mappa : fare clic sui pulsanti verdi con una croce nera per ingrandire, il pulsante verde con un trattino per diminuire, o sulla freccia verde per le mappe adiacenti.


METAR-TAF: